sensor_id;sensor_type;location;lat;lon;timestamp;temperature;humidity
10964;DHT22;5534;48.784;9.190;2024-03-22T00:02:15;13.30;99.90
10964;DHT22;5534;48.784;9.190;2024-03-22T00:04:40;13.40;99.90
10964;DHT22;5534;48.784;9.190;2024-03-22T00:07:06;13.50;99.90
10964;DHT22;5534;48.784;9.190;2024-03-22T00:09:32;13.10;99.90
10964;DHT22;5534;48.784;9.190;2024-03-22T00:11:57;13.00;99.90
10964;DHT22;5534;48.784;9.190;2024-03-22T00:14:23;13.20;99.90
10964;DHT22;5534;48.784;9.190;2024-03-22T00:16:48;13.20;99.90
10964;DHT22;5534;48.784;9.190;2024-03-22T00:19:14;13.10;99.90
10964;DHT22;5534;48.784;9.190;2024-03-22T00:21:40;12.90;99.90
10964;DHT22;5534;48.784;9.190;2024-03-22T00:24:05;12.90;99.90
10964;DHT22;5534;48.784;9.190;2024-03-22T00:26:31;12.70;99.90
10964;DHT22;5534;48.784;9.190;2024-03-22T00:28:56;12.80;99.90
10964;DHT22;5534;48.784;9.190;2024-03-22T00:31:25;12.70;99.90
10964;DHT22;5534;48.784;9.190;2024-03-22T00:33:50;12.80;99.90
10964;DHT22;5534;48.784;9.190;2024-03-22T00:36:16;12.90;99.90
10964;DHT22;5534;48.784;9.190;2024-03-22T00:38:41;12.90;99.90
10964;DHT22;5534;48.784;9.190;2024-03-22T00:41:07;12.90;99.90
10964;DHT22;5534;48.784;9.190;2024-03-22T00:43:33;13.00;99.90
10964;DHT22;5534;48.784;9.190;2024-03-22T00:45:58;12.90;99.90
10964;DHT22;5534;48.784;9.190;2024-03-22T00:48:24;13.00;99.90
10964;DHT22;5534;48.784;9.190;2024-03-22T00:50:50;13.10;99.90
10964;DHT22;5534;48.784;9.190;2024-03-22T00:53:15;13.00;99.90
10964;DHT22;5534;48.784;9.190;2024-03-22T00:55:42;12.90;99.90
10964;DHT22;5534;48.784;9.190;2024-03-22T00:58:07;12.90;99.90
10964;DHT22;5534;48.784;9.190;2024-03-22T01:00:33;12.90;99.90
10964;DHT22;5534;48.784;9.190;2024-03-22T01:02:58;12.80;99.90
10964;DHT22;5534;48.784;9.190;2024-03-22T01:05:24;12.80;99.90
10964;DHT22;5534;48.784;9.190;2024-03-22T01:07:51;12.80;99.90
10964;DHT22;5534;48.784;9.190;2024-03-22T01:10:17;12.90;99.90
10964;DHT22;5534;48.784;9.190;2024-03-22T01:12:44;12.90;99.90
10964;DHT22;5534;48.784;9.190;2024-03-22T01:15:09;12.80;99.90
10964;DHT22;5534;48.784;9.190;2024-03-22T01:17:35;12.40;99.90
10964;DHT22;5534;48.784;9.190;2024-03-22T01:20:01;12.50;99.90
10964;DHT22;5534;48.784;9.190;2024-03-22T01:22:27;12.40;99.90
10964;DHT22;5534;48.784;9.190;2024-03-22T01:24:53;12.50;99.90
10964;DHT22;5534;48.784;9.190;2024-03-22T01:27:19;12.40;99.90
10964;DHT22;5534;48.784;9.190;2024-03-22T01:29:45;12.40;99.90
10964;DHT22;5534;48.784;9.190;2024-03-22T01:32:11;12.20;99.90
10964;DHT22;5534;48.784;9.190;2024-03-22T01:34:37;12.50;99.90
10964;DHT22;5534;48.784;9.190;2024-03-22T01:37:02;12.60;99.90
10964;DHT22;5534;48.784;9.190;2024-03-22T01:39:28;12.60;99.90
10964;DHT22;5534;48.784;9.190;2024-03-22T01:41:54;12.60;99.90
10964;DHT22;5534;48.784;9.190;2024-03-22T01:44:27;12.40;99.90
10964;DHT22;5534;48.784;9.190;2024-03-22T01:46:53;12.50;99.90
10964;DHT22;5534;48.784;9.190;2024-03-22T01:49:18;12.40;99.90
10964;DHT22;5534;48.784;9.190;2024-03-22T01:51:44;12.60;99.90
10964;DHT22;5534;48.784;9.190;2024-03-22T01:54:10;12.40;99.90
10964;DHT22;5534;48.784;9.190;2024-03-22T01:56:37;12.40;99.90
10964;DHT22;5534;48.784;9.190;2024-03-22T01:59:03;12.50;99.90
10964;DHT22;5534;48.784;9.190;2024-03-22T02:01:29;12.40;99.90
10964;DHT22;5534;48.784;9.190;2024-03-22T02:03:55;12.00;99.90
10964;DHT22;5534;48.784;9.190;2024-03-22T02:06:23;12.00;99.90
10964;DHT22;5534;48.784;9.190;2024-03-22T02:08:49;11.90;99.90
10964;DHT22;5534;48.784;9.190;2024-03-22T02:11:15;11.50;99.90
10964;DHT22;5534;48.784;9.190;2024-03-22T02:13:40;11.30;99.90
10964;DHT22;5534;48.784;9.190;2024-03-22T02:16:06;11.30;99.90
10964;DHT22;5534;48.784;9.190;2024-03-22T02:18:32;11.60;99.90
10964;DHT22;5534;48.784;9.190;2024-03-22T02:20:57;11.90;99.90
10964;DHT22;5534;48.784;9.190;2024-03-22T02:26:03;11.90;99.90
10964;DHT22;5534;48.784;9.190;2024-03-22T02:28:29;11.90;99.90
10964;DHT22;5534;48.784;9.190;2024-03-22T02:30:54;11.90;99.90
10964;DHT22;5534;48.784;9.190;2024-03-22T02:33:20;11.90;99.90
10964;DHT22;5534;48.784;9.190;2024-03-22T02:35:49;11.80;99.90
10964;DHT22;5534;48.784;9.190;2024-03-22T02:38:15;11.60;99.90
10964;DHT22;5534;48.784;9.190;2024-03-22T02:40:43;11.60;99.90
10964;DHT22;5534;48.784;9.190;2024-03-22T02:43:11;11.60;99.90
10964;DHT22;5534;48.784;9.190;2024-03-22T02:45:37;11.50;99.90
10964;DHT22;5534;48.784;9.190;2024-03-22T02:48:03;11.40;99.90
10964;DHT22;5534;48.784;9.190;2024-03-22T02:50:33;11.20;99.90
10964;DHT22;5534;48.784;9.190;2024-03-22T02:52:58;11.20;99.90
10964;DHT22;5534;48.784;9.190;2024-03-22T02:55:24;11.10;99.90
10964;DHT22;5534;48.784;9.190;2024-03-22T02:57:50;11.30;99.90
10964;DHT22;5534;48.784;9.190;2024-03-22T03:00:15;11.50;99.90
10964;DHT22;5534;48.784;9.190;2024-03-22T03:02:41;11.50;99.90
10964;DHT22;5534;48.784;9.190;2024-03-22T03:05:07;11.70;99.90
10964;DHT22;5534;48.784;9.190;2024-03-22T03:07:33;11.70;99.90
10964;DHT22;5534;48.784;9.190;2024-03-22T03:09:59;11.70;99.90
10964;DHT22;5534;48.784;9.190;2024-03-22T03:12:25;11.50;99.90
10964;DHT22;5534;48.784;9.190;2024-03-22T03:14:50;11.50;99.90
10964;DHT22;5534;48.784;9.190;2024-03-22T03:17:16;11.50;99.90
10964;DHT22;5534;48.784;9.190;2024-03-22T03:19:41;11.60;99.90
10964;DHT22;5534;48.784;9.190;2024-03-22T03:22:07;11.70;99.90
10964;DHT22;5534;48.784;9.190;2024-03-22T03:24:33;11.70;99.90
10964;DHT22;5534;48.784;9.190;2024-03-22T03:26:58;11.80;99.90
10964;DHT22;5534;48.784;9.190;2024-03-22T03:29:24;11.80;99.90
10964;DHT22;5534;48.784;9.190;2024-03-22T03:31:52;11.60;99.90
10964;DHT22;5534;48.784;9.190;2024-03-22T03:34:18;11.70;99.90
10964;DHT22;5534;48.784;9.190;2024-03-22T03:36:47;11.80;99.90
10964;DHT22;5534;48.784;9.190;2024-03-22T03:39:13;11.50;99.90
10964;DHT22;5534;48.784;9.190;2024-03-22T03:41:38;11.70;99.90
10964;DHT22;5534;48.784;9.190;2024-03-22T03:44:04;11.70;99.90
10964;DHT22;5534;48.784;9.190;2024-03-22T03:46:30;11.70;99.90
10964;DHT22;5534;48.784;9.190;2024-03-22T03:48:55;11.50;99.90
10964;DHT22;5534;48.784;9.190;2024-03-22T03:51:21;11.60;99.90
10964;DHT22;5534;48.784;9.190;2024-03-22T03:53:46;11.50;99.90
10964;DHT22;5534;48.784;9.190;2024-03-22T03:56:12;11.40;99.90
10964;DHT22;5534;48.784;9.190;2024-03-22T03:58:38;11.50;99.90
10964;DHT22;5534;48.784;9.190;2024-03-22T04:01:07;11.70;99.90
10964;DHT22;5534;48.784;9.190;2024-03-22T04:03:33;11.60;99.90
10964;DHT22;5534;48.784;9.190;2024-03-22T04:05:59;11.50;99.90
10964;DHT22;5534;48.784;9.190;2024-03-22T04:08:28;11.40;99.90
10964;DHT22;5534;48.784;9.190;2024-03-22T04:10:56;11.50;99.90
10964;DHT22;5534;48.784;9.190;2024-03-22T04:13:25;11.50;99.90
10964;DHT22;5534;48.784;9.190;2024-03-22T04:15:52;11.70;99.90
10964;DHT22;5534;48.784;9.190;2024-03-22T04:18:17;11.80;99.90
10964;DHT22;5534;48.784;9.190;2024-03-22T04:20:56;11.90;99.90
10964;DHT22;5534;48.784;9.190;2024-03-22T04:23:22;11.90;99.90
10964;DHT22;5534;48.784;9.190;2024-03-22T04:26:02;11.90;99.90
10964;DHT22;5534;48.784;9.190;2024-03-22T04:28:28;11.80;99.90
10964;DHT22;5534;48.784;9.190;2024-03-22T04:31:00;11.90;99.90
10964;DHT22;5534;48.784;9.190;2024-03-22T04:33:27;11.90;99.90
10964;DHT22;5534;48.784;9.190;2024-03-22T04:35:56;11.90;99.90
10964;DHT22;5534;48.784;9.190;2024-03-22T04:38:23;11.80;99.90
10964;DHT22;5534;48.784;9.190;2024-03-22T04:40:48;11.80;99.90
10964;DHT22;5534;48.784;9.190;2024-03-22T04:43:17;11.80;99.90
10964;DHT22;5534;48.784;9.190;2024-03-22T04:45:44;11.80;99.90
10964;DHT22;5534;48.784;9.190;2024-03-22T04:48:11;11.70;99.90
10964;DHT22;5534;48.784;9.190;2024-03-22T04:50:37;11.70;99.90
10964;DHT22;5534;48.784;9.190;2024-03-22T04:53:03;11.70;99.90
10964;DHT22;5534;48.784;9.190;2024-03-22T04:55:29;11.60;99.90
10964;DHT22;5534;48.784;9.190;2024-03-22T04:57:54;11.60;99.90
10964;DHT22;5534;48.784;9.190;2024-03-22T05:00:20;11.80;99.90
10964;DHT22;5534;48.784;9.190;2024-03-22T05:02:46;12.00;99.90
10964;DHT22;5534;48.784;9.190;2024-03-22T05:05:12;12.10;99.90
10964;DHT22;5534;48.784;9.190;2024-03-22T05:07:38;12.10;99.90
10964;DHT22;5534;48.784;9.190;2024-03-22T05:10:04;12.00;99.90
10964;DHT22;5534;48.784;9.190;2024-03-22T05:12:30;12.10;99.90
10964;DHT22;5534;48.784;9.190;2024-03-22T05:14:56;12.10;99.90
10964;DHT22;5534;48.784;9.190;2024-03-22T05:17:22;12.20;99.90
10964;DHT22;5534;48.784;9.190;2024-03-22T05:19:47;12.20;99.90
10964;DHT22;5534;48.784;9.190;2024-03-22T05:22:15;12.30;99.90
10964;DHT22;5534;48.784;9.190;2024-03-22T05:24:41;12.20;99.90
10964;DHT22;5534;48.784;9.190;2024-03-22T05:27:07;12.30;99.90
10964;DHT22;5534;48.784;9.190;2024-03-22T05:29:33;12.30;99.90
10964;DHT22;5534;48.784;9.190;2024-03-22T05:31:58;12.20;99.90
10964;DHT22;5534;48.784;9.190;2024-03-22T05:34:25;12.20;99.90
10964;DHT22;5534;48.784;9.190;2024-03-22T05:36:51;12.20;99.90
10964;DHT22;5534;48.784;9.190;2024-03-22T05:39:16;12.10;99.90
10964;DHT22;5534;48.784;9.190;2024-03-22T05:41:42;12.00;99.90
10964;DHT22;5534;48.784;9.190;2024-03-22T05:44:08;12.10;99.90
10964;DHT22;5534;48.784;9.190;2024-03-22T05:46:33;12.00;99.90
10964;DHT22;5534;48.784;9.190;2024-03-22T05:48:59;11.80;99.90
10964;DHT22;5534;48.784;9.190;2024-03-22T05:51:26;11.80;99.90
10964;DHT22;5534;48.784;9.190;2024-03-22T05:53:51;11.80;99.90
10964;DHT22;5534;48.784;9.190;2024-03-22T05:56:17;11.70;99.90
10964;DHT22;5534;48.784;9.190;2024-03-22T05:58:43;12.00;99.90
10964;DHT22;5534;48.784;9.190;2024-03-22T06:01:09;12.10;99.90
10964;DHT22;5534;48.784;9.190;2024-03-22T06:03:34;12.30;99.90
10964;DHT22;5534;48.784;9.190;2024-03-22T06:06:00;12.20;99.90
10964;DHT22;5534;48.784;9.190;2024-03-22T06:08:26;12.20;99.90
10964;DHT22;5534;48.784;9.190;2024-03-22T06:10:54;12.20;99.90
10964;DHT22;5534;48.784;9.190;2024-03-22T06:13:19;12.10;99.90
10964;DHT22;5534;48.784;9.190;2024-03-22T06:15:48;12.10;99.90
10964;DHT22;5534;48.784;9.190;2024-03-22T06:18:14;12.10;99.90
10964;DHT22;5534;48.784;9.190;2024-03-22T06:20:40;12.20;99.90
10964;DHT22;5534;48.784;9.190;2024-03-22T06:23:07;12.20;99.90
10964;DHT22;5534;48.784;9.190;2024-03-22T06:25:32;12.20;99.90
10964;DHT22;5534;48.784;9.190;2024-03-22T06:27:58;12.20;99.90
10964;DHT22;5534;48.784;9.190;2024-03-22T06:30:23;12.20;99.90
10964;DHT22;5534;48.784;9.190;2024-03-22T06:32:49;12.20;99.90
10964;DHT22;5534;48.784;9.190;2024-03-22T06:35:14;12.10;99.90
10964;DHT22;5534;48.784;9.190;2024-03-22T06:37:40;12.20;99.90
10964;DHT22;5534;48.784;9.190;2024-03-22T06:40:07;12.10;99.90
10964;DHT22;5534;48.784;9.190;2024-03-22T06:42:33;11.70;99.90
10964;DHT22;5534;48.784;9.190;2024-03-22T06:44:59;11.50;99.90
10964;DHT22;5534;48.784;9.190;2024-03-22T06:47:24;11.70;99.90
10964;DHT22;5534;48.784;9.190;2024-03-22T06:49:50;11.60;99.90
10964;DHT22;5534;48.784;9.190;2024-03-22T06:52:16;11.60;99.90
10964;DHT22;5534;48.784;9.190;2024-03-22T06:54:43;11.70;99.90
10964;DHT22;5534;48.784;9.190;2024-03-22T06:57:09;11.90;99.90
10964;DHT22;5534;48.784;9.190;2024-03-22T06:59:34;11.90;99.90
10964;DHT22;5534;48.784;9.190;2024-03-22T07:02:00;11.90;99.90
10964;DHT22;5534;48.784;9.190;2024-03-22T07:04:26;12.30;99.90
10964;DHT22;5534;48.784;9.190;2024-03-22T07:06:51;12.50;99.90
10964;DHT22;5534;48.784;9.190;2024-03-22T07:09:17;12.60;99.90
10964;DHT22;5534;48.784;9.190;2024-03-22T07:11:43;12.70;99.90
10964;DHT22;5534;48.784;9.190;2024-03-22T07:14:09;12.80;99.90
10964;DHT22;5534;48.784;9.190;2024-03-22T07:16:35;12.80;99.90
10964;DHT22;5534;48.784;9.190;2024-03-22T07:19:02;12.90;99.90
10964;DHT22;5534;48.784;9.190;2024-03-22T07:21:29;12.90;99.90
10964;DHT22;5534;48.784;9.190;2024-03-22T07:23:54;12.80;99.90
10964;DHT22;5534;48.784;9.190;2024-03-22T07:26:20;12.90;99.90
10964;DHT22;5534;48.784;9.190;2024-03-22T07:28:46;12.80;99.90
10964;DHT22;5534;48.784;9.190;2024-03-22T07:31:12;12.80;99.90
10964;DHT22;5534;48.784;9.190;2024-03-22T07:33:37;12.70;99.90
10964;DHT22;5534;48.784;9.190;2024-03-22T07:36:05;12.70;99.90
10964;DHT22;5534;48.784;9.190;2024-03-22T07:38:31;12.80;99.90
10964;DHT22;5534;48.784;9.190;2024-03-22T07:40:56;12.80;99.90
10964;DHT22;5534;48.784;9.190;2024-03-22T07:43:22;12.80;99.90
10964;DHT22;5534;48.784;9.190;2024-03-22T07:45:50;12.80;99.90
10964;DHT22;5534;48.784;9.190;2024-03-22T07:48:16;12.80;99.90
10964;DHT22;5534;48.784;9.190;2024-03-22T07:50:44;12.80;99.90
10964;DHT22;5534;48.784;9.190;2024-03-22T07:53:10;12.70;99.90
10964;DHT22;5534;48.784;9.190;2024-03-22T07:55:35;12.80;99.90
10964;DHT22;5534;48.784;9.190;2024-03-22T07:58:01;12.70;99.90
10964;DHT22;5534;48.784;9.190;2024-03-22T08:00:27;12.70;99.90
10964;DHT22;5534;48.784;9.190;2024-03-22T08:02:52;12.80;99.90
10964;DHT22;5534;48.784;9.190;2024-03-22T08:05:18;12.80;99.90
10964;DHT22;5534;48.784;9.190;2024-03-22T08:07:45;12.90;99.90
10964;DHT22;5534;48.784;9.190;2024-03-22T08:10:11;13.00;99.90
10964;DHT22;5534;48.784;9.190;2024-03-22T08:12:37;13.00;99.90
10964;DHT22;5534;48.784;9.190;2024-03-22T08:15:03;13.10;99.90
10964;DHT22;5534;48.784;9.190;2024-03-22T08:17:29;13.20;99.90
10964;DHT22;5534;48.784;9.190;2024-03-22T08:19:54;13.30;99.90
10964;DHT22;5534;48.784;9.190;2024-03-22T08:22:20;13.40;99.90
10964;DHT22;5534;48.784;9.190;2024-03-22T08:24:46;13.50;99.90
10964;DHT22;5534;48.784;9.190;2024-03-22T08:27:11;13.60;99.90
10964;DHT22;5534;48.784;9.190;2024-03-22T08:29:39;13.90;99.90
10964;DHT22;5534;48.784;9.190;2024-03-22T08:32:05;14.30;99.90
10964;DHT22;5534;48.784;9.190;2024-03-22T08:34:31;14.30;99.90
10964;DHT22;5534;48.784;9.190;2024-03-22T08:37:00;14.40;99.90
10964;DHT22;5534;48.784;9.190;2024-03-22T08:39:25;14.70;99.90
10964;DHT22;5534;48.784;9.190;2024-03-22T08:41:51;14.90;99.90
10964;DHT22;5534;48.784;9.190;2024-03-22T08:44:17;15.10;99.90
10964;DHT22;5534;48.784;9.190;2024-03-22T08:46:43;15.20;99.90
10964;DHT22;5534;48.784;9.190;2024-03-22T08:49:09;15.40;99.90
10964;DHT22;5534;48.784;9.190;2024-03-22T08:51:37;15.60;99.90
10964;DHT22;5534;48.784;9.190;2024-03-22T08:54:02;15.70;99.90
10964;DHT22;5534;48.784;9.190;2024-03-22T08:56:29;15.70;99.90
10964;DHT22;5534;48.784;9.190;2024-03-22T08:58:55;15.50;99.90
10964;DHT22;5534;48.784;9.190;2024-03-22T09:01:21;15.40;99.90
10964;DHT22;5534;48.784;9.190;2024-03-22T09:03:47;15.40;99.90
10964;DHT22;5534;48.784;9.190;2024-03-22T09:06:14;15.60;99.90
10964;DHT22;5534;48.784;9.190;2024-03-22T09:08:40;15.60;99.90
10964;DHT22;5534;48.784;9.190;2024-03-22T09:11:06;15.60;99.90
10964;DHT22;5534;48.784;9.190;2024-03-22T09:13:31;15.70;99.90
10964;DHT22;5534;48.784;9.190;2024-03-22T09:16:00;15.80;99.90
10964;DHT22;5534;48.784;9.190;2024-03-22T09:18:26;15.80;99.90
10964;DHT22;5534;48.784;9.190;2024-03-22T09:20:53;15.90;99.90
10964;DHT22;5534;48.784;9.190;2024-03-22T09:23:19;15.90;99.90
10964;DHT22;5534;48.784;9.190;2024-03-22T09:25:45;16.00;99.90
10964;DHT22;5534;48.784;9.190;2024-03-22T09:28:12;16.10;99.90
10964;DHT22;5534;48.784;9.190;2024-03-22T09:30:41;16.20;99.90
10964;DHT22;5534;48.784;9.190;2024-03-22T09:33:08;16.50;99.90
10964;DHT22;5534;48.784;9.190;2024-03-22T09:35:35;16.60;99.90
10964;DHT22;5534;48.784;9.190;2024-03-22T09:38:01;16.70;99.90
10964;DHT22;5534;48.784;9.190;2024-03-22T09:40:30;16.90;99.90
10964;DHT22;5534;48.784;9.190;2024-03-22T09:43:01;17.00;99.90
10964;DHT22;5534;48.784;9.190;2024-03-22T09:45:28;17.10;99.90
10964;DHT22;5534;48.784;9.190;2024-03-22T09:47:56;17.20;99.90
10964;DHT22;5534;48.784;9.190;2024-03-22T09:50:22;17.30;99.90
10964;DHT22;5534;48.784;9.190;2024-03-22T09:52:48;17.50;99.90
10964;DHT22;5534;48.784;9.190;2024-03-22T09:55:17;17.80;99.90
10964;DHT22;5534;48.784;9.190;2024-03-22T09:57:44;17.90;99.90
10964;DHT22;5534;48.784;9.190;2024-03-22T10:00:11;17.90;99.90
10964;DHT22;5534;48.784;9.190;2024-03-22T10:02:40;18.00;99.90
10964;DHT22;5534;48.784;9.190;2024-03-22T10:05:06;17.70;99.90
10964;DHT22;5534;48.784;9.190;2024-03-22T10:07:32;17.50;99.90
10964;DHT22;5534;48.784;9.190;2024-03-22T10:09:58;17.50;99.90
10964;DHT22;5534;48.784;9.190;2024-03-22T10:12:24;17.40;99.90
10964;DHT22;5534;48.784;9.190;2024-03-22T10:14:53;17.50;99.90
10964;DHT22;5534;48.784;9.190;2024-03-22T10:17:19;17.60;99.90
10964;DHT22;5534;48.784;9.190;2024-03-22T10:19:45;17.80;99.90
10964;DHT22;5534;48.784;9.190;2024-03-22T10:22:10;18.00;99.90
10964;DHT22;5534;48.784;9.190;2024-03-22T10:24:36;18.10;99.90
10964;DHT22;5534;48.784;9.190;2024-03-22T10:27:02;18.10;99.90
10964;DHT22;5534;48.784;9.190;2024-03-22T10:29:27;18.30;99.90
10964;DHT22;5534;48.784;9.190;2024-03-22T10:31:54;18.40;99.90
10964;DHT22;5534;48.784;9.190;2024-03-22T10:34:24;18.30;99.90
10964;DHT22;5534;48.784;9.190;2024-03-22T10:36:50;18.10;99.90
10964;DHT22;5534;48.784;9.190;2024-03-22T10:39:19;18.00;99.90
10964;DHT22;5534;48.784;9.190;2024-03-22T10:41:48;18.00;99.90
10964;DHT22;5534;48.784;9.190;2024-03-22T10:44:15;17.90;99.90
10964;DHT22;5534;48.784;9.190;2024-03-22T10:46:44;17.90;99.90
10964;DHT22;5534;48.784;9.190;2024-03-22T10:49:15;18.00;99.90
10964;DHT22;5534;48.784;9.190;2024-03-22T10:51:41;18.10;99.90
10964;DHT22;5534;48.784;9.190;2024-03-22T10:54:08;18.00;99.90
10964;DHT22;5534;48.784;9.190;2024-03-22T10:56:34;17.90;99.90
10964;DHT22;5534;48.784;9.190;2024-03-22T10:59:03;17.90;99.90
10964;DHT22;5534;48.784;9.190;2024-03-22T11:01:31;17.90;99.90
10964;DHT22;5534;48.784;9.190;2024-03-22T11:04:08;17.90;99.90
10964;DHT22;5534;48.784;9.190;2024-03-22T11:06:36;18.10;99.90
10964;DHT22;5534;48.784;9.190;2024-03-22T11:09:02;18.10;99.90
10964;DHT22;5534;48.784;9.190;2024-03-22T11:11:35;18.40;99.90
10964;DHT22;5534;48.784;9.190;2024-03-22T11:14:03;18.50;99.90
10964;DHT22;5534;48.784;9.190;2024-03-22T11:16:30;18.70;99.90
10964;DHT22;5534;48.784;9.190;2024-03-22T11:18:57;18.90;99.90
10964;DHT22;5534;48.784;9.190;2024-03-22T11:21:23;18.90;99.90
10964;DHT22;5534;48.784;9.190;2024-03-22T11:23:49;18.80;99.90
10964;DHT22;5534;48.784;9.190;2024-03-22T11:26:14;18.90;99.90
10964;DHT22;5534;48.784;9.190;2024-03-22T11:28:40;18.90;99.90
10964;DHT22;5534;48.784;9.190;2024-03-22T11:31:06;19.10;99.90
10964;DHT22;5534;48.784;9.190;2024-03-22T11:33:32;19.10;99.90
10964;DHT22;5534;48.784;9.190;2024-03-22T11:36:01;19.10;99.90
10964;DHT22;5534;48.784;9.190;2024-03-22T11:38:30;18.80;99.90
10964;DHT22;5534;48.784;9.190;2024-03-22T11:40:57;18.80;99.90
10964;DHT22;5534;48.784;9.190;2024-03-22T11:43:26;18.80;99.90
10964;DHT22;5534;48.784;9.190;2024-03-22T11:45:53;18.90;99.90
10964;DHT22;5534;48.784;9.190;2024-03-22T11:48:19;19.10;99.90
10964;DHT22;5534;48.784;9.190;2024-03-22T11:50:45;19.10;99.90
10964;DHT22;5534;48.784;9.190;2024-03-22T11:53:11;19.00;99.90
10964;DHT22;5534;48.784;9.190;2024-03-22T11:55:37;19.00;99.90
10964;DHT22;5534;48.784;9.190;2024-03-22T11:58:02;18.90;99.90
10964;DHT22;5534;48.784;9.190;2024-03-22T12:00:28;18.90;99.90
10964;DHT22;5534;48.784;9.190;2024-03-22T12:02:54;18.90;99.90
10964;DHT22;5534;48.784;9.190;2024-03-22T12:05:22;19.00;99.90
10964;DHT22;5534;48.784;9.190;2024-03-22T12:07:48;19.00;99.90
10964;DHT22;5534;48.784;9.190;2024-03-22T12:10:16;19.20;99.90
10964;DHT22;5534;48.784;9.190;2024-03-22T12:12:42;19.20;99.90
10964;DHT22;5534;48.784;9.190;2024-03-22T12:15:07;19.20;99.90
10964;DHT22;5534;48.784;9.190;2024-03-22T12:17:33;19.20;99.90
10964;DHT22;5534;48.784;9.190;2024-03-22T12:20:01;19.40;99.90
10964;DHT22;5534;48.784;9.190;2024-03-22T12:22:29;19.60;99.90
10964;DHT22;5534;48.784;9.190;2024-03-22T12:24:55;19.70;99.90
10964;DHT22;5534;48.784;9.190;2024-03-22T12:27:21;19.60;99.90
10964;DHT22;5534;48.784;9.190;2024-03-22T12:29:46;19.50;99.90
10964;DHT22;5534;48.784;9.190;2024-03-22T12:32:12;19.30;99.90
10964;DHT22;5534;48.784;9.190;2024-03-22T12:34:37;19.10;99.90
10964;DHT22;5534;48.784;9.190;2024-03-22T12:37:03;19.10;99.90
10964;DHT22;5534;48.784;9.190;2024-03-22T12:39:29;19.10;99.90
10964;DHT22;5534;48.784;9.190;2024-03-22T12:41:54;19.20;99.90
10964;DHT22;5534;48.784;9.190;2024-03-22T12:44:20;19.20;99.90
10964;DHT22;5534;48.784;9.190;2024-03-22T12:46:46;19.30;99.90
10964;DHT22;5534;48.784;9.190;2024-03-22T12:49:12;19.30;99.90
10964;DHT22;5534;48.784;9.190;2024-03-22T12:51:38;19.10;98.90
10964;DHT22;5534;48.784;9.190;2024-03-22T12:54:04;19.20;99.70
10964;DHT22;5534;48.784;9.190;2024-03-22T12:56:30;19.30;99.90
10964;DHT22;5534;48.784;9.190;2024-03-22T12:58:56;19.40;99.90
10964;DHT22;5534;48.784;9.190;2024-03-22T13:01:21;19.30;99.90
10964;DHT22;5534;48.784;9.190;2024-03-22T13:03:47;19.30;99.90
10964;DHT22;5534;48.784;9.190;2024-03-22T13:06:13;19.40;99.90
10964;DHT22;5534;48.784;9.190;2024-03-22T13:08:38;19.50;99.40
10964;DHT22;5534;48.784;9.190;2024-03-22T13:11:04;19.50;99.50
10964;DHT22;5534;48.784;9.190;2024-03-22T13:13:30;19.30;99.90
10964;DHT22;5534;48.784;9.190;2024-03-22T13:15:58;19.30;99.90
10964;DHT22;5534;48.784;9.190;2024-03-22T13:18:24;19.40;99.90
10964;DHT22;5534;48.784;9.190;2024-03-22T13:20:49;19.40;99.10
10964;DHT22;5534;48.784;9.190;2024-03-22T13:23:15;19.50;98.90
10964;DHT22;5534;48.784;9.190;2024-03-22T13:25:41;19.60;98.30
10964;DHT22;5534;48.784;9.190;2024-03-22T13:28:06;19.60;97.90
10964;DHT22;5534;48.784;9.190;2024-03-22T13:30:32;19.80;99.00
10964;DHT22;5534;48.784;9.190;2024-03-22T13:32:58;19.80;98.70
10964;DHT22;5534;48.784;9.190;2024-03-22T13:35:24;19.80;99.20
10964;DHT22;5534;48.784;9.190;2024-03-22T13:37:50;19.70;99.90
10964;DHT22;5534;48.784;9.190;2024-03-22T13:40:16;19.70;99.60
10964;DHT22;5534;48.784;9.190;2024-03-22T13:42:41;19.70;99.50
10964;DHT22;5534;48.784;9.190;2024-03-22T13:45:07;19.60;99.40
10964;DHT22;5534;48.784;9.190;2024-03-22T13:47:33;19.60;99.40
10964;DHT22;5534;48.784;9.190;2024-03-22T13:49:59;19.60;99.50
10964;DHT22;5534;48.784;9.190;2024-03-22T13:52:24;19.60;99.30
10964;DHT22;5534;48.784;9.190;2024-03-22T13:54:51;19.60;99.40
10964;DHT22;5534;48.784;9.190;2024-03-22T13:57:16;19.70;99.50
10964;DHT22;5534;48.784;9.190;2024-03-22T13:59:42;19.60;99.70
10964;DHT22;5534;48.784;9.190;2024-03-22T14:02:08;19.60;99.90
10964;DHT22;5534;48.784;9.190;2024-03-22T14:04:35;19.60;99.90
10964;DHT22;5534;48.784;9.190;2024-03-22T14:07:01;19.50;99.90
10964;DHT22;5534;48.784;9.190;2024-03-22T14:09:32;19.40;99.90
10964;DHT22;5534;48.784;9.190;2024-03-22T14:11:58;19.40;99.90
10964;DHT22;5534;48.784;9.190;2024-03-22T14:14:25;19.40;99.90
10964;DHT22;5534;48.784;9.190;2024-03-22T14:16:52;19.30;99.90
10964;DHT22;5534;48.784;9.190;2024-03-22T14:19:17;19.20;99.90
10964;DHT22;5534;48.784;9.190;2024-03-22T14:21:44;19.20;99.90
10964;DHT22;5534;48.784;9.190;2024-03-22T14:24:10;19.20;99.90
10964;DHT22;5534;48.784;9.190;2024-03-22T14:26:36;19.10;99.90
10964;DHT22;5534;48.784;9.190;2024-03-22T14:29:10;19.00;99.90
10964;DHT22;5534;48.784;9.190;2024-03-22T14:31:36;18.90;99.90
10964;DHT22;5534;48.784;9.190;2024-03-22T14:34:01;18.90;99.90
10964;DHT22;5534;48.784;9.190;2024-03-22T14:36:27;18.80;99.90
10964;DHT22;5534;48.784;9.190;2024-03-22T14:38:53;18.90;99.90
10964;DHT22;5534;48.784;9.190;2024-03-22T14:41:20;18.80;99.90
10964;DHT22;5534;48.784;9.190;2024-03-22T14:43:45;18.70;99.90
10964;DHT22;5534;48.784;9.190;2024-03-22T14:46:11;18.70;99.90
10964;DHT22;5534;48.784;9.190;2024-03-22T14:48:37;18.60;99.90
10964;DHT22;5534;48.784;9.190;2024-03-22T14:51:02;18.70;99.90
10964;DHT22;5534;48.784;9.190;2024-03-22T14:53:28;18.60;99.30
10964;DHT22;5534;48.784;9.190;2024-03-22T14:55:59;18.60;99.20
10964;DHT22;5534;48.784;9.190;2024-03-22T14:58:28;18.50;98.90
10964;DHT22;5534;48.784;9.190;2024-03-22T15:00:59;18.70;97.90
10964;DHT22;5534;48.784;9.190;2024-03-22T15:03:25;18.60;98.00
10964;DHT22;5534;48.784;9.190;2024-03-22T15:05:52;18.60;97.80
10964;DHT22;5534;48.784;9.190;2024-03-22T15:08:19;18.50;98.10
10964;DHT22;5534;48.784;9.190;2024-03-22T15:10:44;18.40;97.90
10964;DHT22;5534;48.784;9.190;2024-03-22T15:13:11;18.60;98.10
10964;DHT22;5534;48.784;9.190;2024-03-22T15:15:37;18.60;98.70
10964;DHT22;5534;48.784;9.190;2024-03-22T15:18:03;18.60;98.50
10964;DHT22;5534;48.784;9.190;2024-03-22T15:20:31;18.70;97.70
10964;DHT22;5534;48.784;9.190;2024-03-22T15:22:56;18.70;97.70
10964;DHT22;5534;48.784;9.190;2024-03-22T15:25:23;18.50;98.00
10964;DHT22;5534;48.784;9.190;2024-03-22T15:27:49;18.60;97.80
10964;DHT22;5534;48.784;9.190;2024-03-22T15:30:14;18.70;97.00
10964;DHT22;5534;48.784;9.190;2024-03-22T15:32:41;18.60;97.10
10964;DHT22;5534;48.784;9.190;2024-03-22T15:35:07;18.60;97.60
10964;DHT22;5534;48.784;9.190;2024-03-22T15:37:37;18.60;97.40
10964;DHT22;5534;48.784;9.190;2024-03-22T15:40:03;18.50;97.90
10964;DHT22;5534;48.784;9.190;2024-03-22T15:42:29;18.50;98.30